sensor_id;sensor_type;location;lat;lon;timestamp;P1;durP1;ratioP1;P2;durP2;ratioP2
40717;SDS011;26405;51.850;-2.246;2023-08-21T00:05:26;12.02;;;3.15;;
40717;SDS011;26405;51.850;-2.246;2023-08-21T00:07:54;11.02;;;2.92;;
40717;SDS011;26405;51.850;-2.246;2023-08-21T00:10:19;9.80;;;2.57;;
40717;SDS011;26405;51.850;-2.246;2023-08-21T00:12:45;9.20;;;3.07;;
40717;SDS011;26405;51.850;-2.246;2023-08-21T00:15:13;14.97;;;3.30;;
40717;SDS011;26405;51.850;-2.246;2023-08-21T00:20:09;9.63;;;2.78;;
40717;SDS011;26405;51.850;-2.246;2023-08-21T00:22:35;10.50;;;3.00;;
40717;SDS011;26405;51.850;-2.246;2023-08-21T00:25:01;9.17;;;3.13;;
40717;SDS011;26405;51.850;-2.246;2023-08-21T00:27:29;9.20;;;2.73;;
40717;SDS011;26405;51.850;-2.246;2023-08-21T00:29:55;12.30;;;3.15;;
40717;SDS011;26405;51.850;-2.246;2023-08-21T00:32:20;11.10;;;3.00;;
40717;SDS011;26405;51.850;-2.246;2023-08-21T00:34:46;10.03;;;3.03;;
40717;SDS011;26405;51.850;-2.246;2023-08-21T00:37:11;11.87;;;3.47;;
40717;SDS011;26405;51.850;-2.246;2023-08-21T00:39:36;11.60;;;2.77;;
40717;SDS011;26405;51.850;-2.246;2023-08-21T00:42:01;11.00;;;2.80;;
40717;SDS011;26405;51.850;-2.246;2023-08-21T00:44:27;10.40;;;2.87;;
40717;SDS011;26405;51.850;-2.246;2023-08-21T00:46:52;8.63;;;2.80;;
40717;SDS011;26405;51.850;-2.246;2023-08-21T00:49:17;10.40;;;3.03;;
40717;SDS011;26405;51.850;-2.246;2023-08-21T00:51:43;12.20;;;3.17;;
40717;SDS011;26405;51.850;-2.246;2023-08-21T00:54:09;13.85;;;3.05;;
40717;SDS011;26405;51.850;-2.246;2023-08-21T00:56:34;11.67;;;2.97;;
40717;SDS011;26405;51.850;-2.246;2023-08-21T00:59:00;8.93;;;2.83;;
40717;SDS011;26405;51.850;-2.246;2023-08-21T01:01:25;10.20;;;3.10;;
40717;SDS011;26405;51.850;-2.246;2023-08-21T01:03:51;12.43;;;3.20;;
40717;SDS011;26405;51.850;-2.246;2023-08-21T01:06:16;10.17;;;2.83;;
40717;SDS011;26405;51.850;-2.246;2023-08-21T01:11:26;13.07;;;3.03;;
40717;SDS011;26405;51.850;-2.246;2023-08-21T01:14:03;14.07;;;2.97;;
40717;SDS011;26405;51.850;-2.246;2023-08-21T01:16:31;8.45;;;2.70;;
40717;SDS011;26405;51.850;-2.246;2023-08-21T01:18:57;10.63;;;2.90;;
40717;SDS011;26405;51.850;-2.246;2023-08-21T01:21:24;10.63;;;3.00;;
40717;SDS011;26405;51.850;-2.246;2023-08-21T01:23:50;10.33;;;2.80;;
40717;SDS011;26405;51.850;-2.246;2023-08-21T01:26:15;13.07;;;3.03;;
40717;SDS011;26405;51.850;-2.246;2023-08-21T01:28:40;10.47;;;3.03;;
40717;SDS011;26405;51.850;-2.246;2023-08-21T01:31:14;11.57;;;3.13;;
40717;SDS011;26405;51.850;-2.246;2023-08-21T01:33:44;11.20;;;2.83;;
40717;SDS011;26405;51.850;-2.246;2023-08-21T01:36:10;10.15;;;2.80;;
40717;SDS011;26405;51.850;-2.246;2023-08-21T01:38:35;9.13;;;3.13;;
40717;SDS011;26405;51.850;-2.246;2023-08-21T01:41:01;13.10;;;3.10;;
40717;SDS011;26405;51.850;-2.246;2023-08-21T01:43:27;14.43;;;3.47;;
40717;SDS011;26405;51.850;-2.246;2023-08-21T01:45:52;12.73;;;3.13;;
40717;SDS011;26405;51.850;-2.246;2023-08-21T01:48:17;12.67;;;3.17;;
40717;SDS011;26405;51.850;-2.246;2023-08-21T01:50:43;8.80;;;2.83;;
40717;SDS011;26405;51.850;-2.246;2023-08-21T01:53:08;11.13;;;2.63;;
40717;SDS011;26405;51.850;-2.246;2023-08-21T01:55:33;12.13;;;2.97;;
40717;SDS011;26405;51.850;-2.246;2023-08-21T01:57:59;15.33;;;3.07;;
40717;SDS011;26405;51.850;-2.246;2023-08-21T02:00:24;11.07;;;2.97;;
40717;SDS011;26405;51.850;-2.246;2023-08-21T02:02:49;11.90;;;3.37;;
40717;SDS011;26405;51.850;-2.246;2023-08-21T02:05:14;10.57;;;2.90;;
40717;SDS011;26405;51.850;-2.246;2023-08-21T02:07:40;12.43;;;3.20;;
40717;SDS011;26405;51.850;-2.246;2023-08-21T02:10:05;14.03;;;3.50;;
40717;SDS011;26405;51.850;-2.246;2023-08-21T02:12:30;14.60;;;3.47;;
40717;SDS011;26405;51.850;-2.246;2023-08-21T02:14:56;15.03;;;3.50;;
40717;SDS011;26405;51.850;-2.246;2023-08-21T02:17:21;13.50;;;3.17;;
40717;SDS011;26405;51.850;-2.246;2023-08-21T02:19:46;13.40;;;3.33;;
40717;SDS011;26405;51.850;-2.246;2023-08-21T02:22:12;12.00;;;3.03;;
40717;SDS011;26405;51.850;-2.246;2023-08-21T02:24:37;10.77;;;2.80;;
40717;SDS011;26405;51.850;-2.246;2023-08-21T02:27:03;12.70;;;3.40;;
40717;SDS011;26405;51.850;-2.246;2023-08-21T02:29:28;12.10;;;3.30;;
40717;SDS011;26405;51.850;-2.246;2023-08-21T02:31:54;10.13;;;2.80;;
40717;SDS011;26405;51.850;-2.246;2023-08-21T02:34:19;10.27;;;3.27;;
40717;SDS011;26405;51.850;-2.246;2023-08-21T02:36:44;9.33;;;3.00;;
40717;SDS011;26405;51.850;-2.246;2023-08-21T02:39:09;13.63;;;3.22;;
40717;SDS011;26405;51.850;-2.246;2023-08-21T02:41:34;17.87;;;3.60;;
40717;SDS011;26405;51.850;-2.246;2023-08-21T02:44:00;10.77;;;3.13;;
40717;SDS011;26405;51.850;-2.246;2023-08-21T02:46:25;12.00;;;3.27;;
40717;SDS011;26405;51.850;-2.246;2023-08-21T02:48:50;12.83;;;3.33;;
40717;SDS011;26405;51.850;-2.246;2023-08-21T02:51:15;12.47;;;3.00;;
40717;SDS011;26405;51.850;-2.246;2023-08-21T02:53:41;9.00;;;2.93;;
40717;SDS011;26405;51.850;-2.246;2023-08-21T02:56:06;10.93;;;2.80;;
40717;SDS011;26405;51.850;-2.246;2023-08-21T02:58:31;11.53;;;3.10;;
40717;SDS011;26405;51.850;-2.246;2023-08-21T03:00:57;10.73;;;3.03;;
40717;SDS011;26405;51.850;-2.246;2023-08-21T03:03:22;11.67;;;3.00;;
40717;SDS011;26405;51.850;-2.246;2023-08-21T03:05:47;16.93;;;3.37;;
40717;SDS011;26405;51.850;-2.246;2023-08-21T03:08:12;12.23;;;3.10;;
40717;SDS011;26405;51.850;-2.246;2023-08-21T03:10:38;11.07;;;3.10;;
40717;SDS011;26405;51.850;-2.246;2023-08-21T03:13:04;16.20;;;3.40;;
40717;SDS011;26405;51.850;-2.246;2023-08-21T03:15:29;14.07;;;3.63;;
40717;SDS011;26405;51.850;-2.246;2023-08-21T03:17:54;14.00;;;3.37;;
40717;SDS011;26405;51.850;-2.246;2023-08-21T03:20:20;11.37;;;2.77;;
40717;SDS011;26405;51.850;-2.246;2023-08-21T03:22:46;13.73;;;3.30;;
40717;SDS011;26405;51.850;-2.246;2023-08-21T03:25:11;10.98;;;2.75;;
40717;SDS011;26405;51.850;-2.246;2023-08-21T03:27:37;13.53;;;3.20;;
40717;SDS011;26405;51.850;-2.246;2023-08-21T03:30:05;10.65;;;2.95;;
40717;SDS011;26405;51.850;-2.246;2023-08-21T03:32:31;9.87;;;2.83;;
40717;SDS011;26405;51.850;-2.246;2023-08-21T03:34:56;12.13;;;3.10;;
40717;SDS011;26405;51.850;-2.246;2023-08-21T03:37:22;10.73;;;2.67;;
40717;SDS011;26405;51.850;-2.246;2023-08-21T03:39:47;11.20;;;2.80;;
40717;SDS011;26405;51.850;-2.246;2023-08-21T03:42:12;11.90;;;2.73;;
40717;SDS011;26405;51.850;-2.246;2023-08-21T03:44:37;8.80;;;2.93;;
40717;SDS011;26405;51.850;-2.246;2023-08-21T03:47:03;12.60;;;2.93;;
40717;SDS011;26405;51.850;-2.246;2023-08-21T03:49:28;9.73;;;3.00;;
40717;SDS011;26405;51.850;-2.246;2023-08-21T03:51:53;9.97;;;3.00;;
40717;SDS011;26405;51.850;-2.246;2023-08-21T03:54:18;12.53;;;3.20;;
40717;SDS011;26405;51.850;-2.246;2023-08-21T03:56:44;14.13;;;3.07;;
40717;SDS011;26405;51.850;-2.246;2023-08-21T03:59:09;13.50;;;2.90;;
40717;SDS011;26405;51.850;-2.246;2023-08-21T04:01:34;15.23;;;3.90;;
40717;SDS011;26405;51.850;-2.246;2023-08-21T04:03:59;10.67;;;3.20;;
40717;SDS011;26405;51.850;-2.246;2023-08-21T04:06:25;12.27;;;3.27;;
40717;SDS011;26405;51.850;-2.246;2023-08-21T04:08:50;11.97;;;2.80;;
40717;SDS011;26405;51.850;-2.246;2023-08-21T04:11:16;14.70;;;3.40;;
40717;SDS011;26405;51.850;-2.246;2023-08-21T04:13:42;9.93;;;3.10;;
40717;SDS011;26405;51.850;-2.246;2023-08-21T04:16:07;10.73;;;2.90;;
40717;SDS011;26405;51.850;-2.246;2023-08-21T04:18:33;14.18;;;3.10;;
40717;SDS011;26405;51.850;-2.246;2023-08-21T04:20:58;11.17;;;3.03;;
40717;SDS011;26405;51.850;-2.246;2023-08-21T04:23:23;11.20;;;2.90;;
40717;SDS011;26405;51.850;-2.246;2023-08-21T04:25:49;15.53;;;2.93;;
40717;SDS011;26405;51.850;-2.246;2023-08-21T04:28:14;10.43;;;2.87;;
40717;SDS011;26405;51.850;-2.246;2023-08-21T04:30:40;12.97;;;2.97;;
40717;SDS011;26405;51.850;-2.246;2023-08-21T04:33:06;10.38;;;2.63;;
40717;SDS011;26405;51.850;-2.246;2023-08-21T04:35:35;8.13;;;2.80;;
40717;SDS011;26405;51.850;-2.246;2023-08-21T04:38:01;12.32;;;2.85;;
40717;SDS011;26405;51.850;-2.246;2023-08-21T04:40:26;10.73;;;2.67;;
40717;SDS011;26405;51.850;-2.246;2023-08-21T04:42:51;7.47;;;2.47;;
40717;SDS011;26405;51.850;-2.246;2023-08-21T04:45:16;10.97;;;2.77;;
40717;SDS011;26405;51.850;-2.246;2023-08-21T04:47:42;11.30;;;2.73;;
40717;SDS011;26405;51.850;-2.246;2023-08-21T04:50:07;11.70;;;2.70;;
40717;SDS011;26405;51.850;-2.246;2023-08-21T04:52:32;10.47;;;2.67;;
40717;SDS011;26405;51.850;-2.246;2023-08-21T04:54:58;10.00;;;2.93;;
40717;SDS011;26405;51.850;-2.246;2023-08-21T04:57:23;11.00;;;2.90;;
40717;SDS011;26405;51.850;-2.246;2023-08-21T04:59:48;9.93;;;2.57;;
40717;SDS011;26405;51.850;-2.246;2023-08-21T05:02:13;6.63;;;2.40;;
40717;SDS011;26405;51.850;-2.246;2023-08-21T05:04:39;6.90;;;2.30;;
40717;SDS011;26405;51.850;-2.246;2023-08-21T05:07:04;7.97;;;2.73;;
40717;SDS011;26405;51.850;-2.246;2023-08-21T05:09:30;10.43;;;2.90;;
40717;SDS011;26405;51.850;-2.246;2023-08-21T05:11:55;11.80;;;2.87;;
40717;SDS011;26405;51.850;-2.246;2023-08-21T05:14:21;8.97;;;3.00;;
40717;SDS011;26405;51.850;-2.246;2023-08-21T05:16:48;7.37;;;2.57;;
40717;SDS011;26405;51.850;-2.246;2023-08-21T05:19:13;8.20;;;2.63;;
40717;SDS011;26405;51.850;-2.246;2023-08-21T05:21:38;7.10;;;2.50;;
40717;SDS011;26405;51.850;-2.246;2023-08-21T05:24:03;4.97;;;2.20;;
40717;SDS011;26405;51.850;-2.246;2023-08-21T05:26:29;7.17;;;2.40;;
40717;SDS011;26405;51.850;-2.246;2023-08-21T05:28:54;8.93;;;2.60;;
40717;SDS011;26405;51.850;-2.246;2023-08-21T05:31:19;8.30;;;2.87;;
40717;SDS011;26405;51.850;-2.246;2023-08-21T05:33:45;10.60;;;2.80;;
40717;SDS011;26405;51.850;-2.246;2023-08-21T05:36:10;9.43;;;2.70;;
40717;SDS011;26405;51.850;-2.246;2023-08-21T05:38:35;10.73;;;2.70;;
40717;SDS011;26405;51.850;-2.246;2023-08-21T05:41:01;10.40;;;2.70;;
40717;SDS011;26405;51.850;-2.246;2023-08-21T05:43:26;11.17;;;2.67;;
40717;SDS011;26405;51.850;-2.246;2023-08-21T05:45:51;11.43;;;2.70;;
40717;SDS011;26405;51.850;-2.246;2023-08-21T05:48:16;9.43;;;2.67;;
40717;SDS011;26405;51.850;-2.246;2023-08-21T05:50:42;9.80;;;2.73;;
40717;SDS011;26405;51.850;-2.246;2023-08-21T05:53:08;11.20;;;2.90;;
40717;SDS011;26405;51.850;-2.246;2023-08-21T05:55:33;8.23;;;2.63;;
40717;SDS011;26405;51.850;-2.246;2023-08-21T05:57:58;9.90;;;3.07;;
40717;SDS011;26405;51.850;-2.246;2023-08-21T06:00:24;7.23;;;2.60;;
40717;SDS011;26405;51.850;-2.246;2023-08-21T06:02:49;10.03;;;3.07;;
40717;SDS011;26405;51.850;-2.246;2023-08-21T06:05:14;8.33;;;2.50;;
40717;SDS011;26405;51.850;-2.246;2023-08-21T06:07:39;9.30;;;2.70;;
40717;SDS011;26405;51.850;-2.246;2023-08-21T06:10:08;8.10;;;2.70;;
40717;SDS011;26405;51.850;-2.246;2023-08-21T06:12:36;9.98;;;2.50;;
40717;SDS011;26405;51.850;-2.246;2023-08-21T06:15:02;9.73;;;2.53;;
40717;SDS011;26405;51.850;-2.246;2023-08-21T06:17:27;6.00;;;2.60;;
40717;SDS011;26405;51.850;-2.246;2023-08-21T06:19:53;7.30;;;2.20;;
40717;SDS011;26405;51.850;-2.246;2023-08-21T06:22:18;5.63;;;2.30;;
40717;SDS011;26405;51.850;-2.246;2023-08-21T06:24:43;11.30;;;2.13;;
40717;SDS011;26405;51.850;-2.246;2023-08-21T06:27:09;8.13;;;2.10;;
40717;SDS011;26405;51.850;-2.246;2023-08-21T06:29:34;8.03;;;2.30;;
40717;SDS011;26405;51.850;-2.246;2023-08-21T06:31:59;8.50;;;2.23;;
40717;SDS011;26405;51.850;-2.246;2023-08-21T06:34:25;7.47;;;2.40;;
40717;SDS011;26405;51.850;-2.246;2023-08-21T06:36:50;10.03;;;2.60;;
40717;SDS011;26405;51.850;-2.246;2023-08-21T06:39:15;8.53;;;2.60;;
40717;SDS011;26405;51.850;-2.246;2023-08-21T06:41:41;11.77;;;2.60;;
40717;SDS011;26405;51.850;-2.246;2023-08-21T06:44:06;8.00;;;2.03;;
40717;SDS011;26405;51.850;-2.246;2023-08-21T06:46:31;8.10;;;2.13;;
40717;SDS011;26405;51.850;-2.246;2023-08-21T06:48:56;5.03;;;2.20;;
40717;SDS011;26405;51.850;-2.246;2023-08-21T06:51:22;8.43;;;2.43;;
40717;SDS011;26405;51.850;-2.246;2023-08-21T06:53:47;6.63;;;2.40;;
40717;SDS011;26405;51.850;-2.246;2023-08-21T06:56:12;8.13;;;2.30;;
40717;SDS011;26405;51.850;-2.246;2023-08-21T06:58:38;6.23;;;2.07;;
40717;SDS011;26405;51.850;-2.246;2023-08-21T07:01:03;8.00;;;2.57;;
40717;SDS011;26405;51.850;-2.246;2023-08-21T07:03:28;10.80;;;2.30;;
40717;SDS011;26405;51.850;-2.246;2023-08-21T07:05:54;5.90;;;1.97;;
40717;SDS011;26405;51.850;-2.246;2023-08-21T07:08:23;5.22;;;2.28;;
40717;SDS011;26405;51.850;-2.246;2023-08-21T07:10:48;6.70;;;2.30;;
40717;SDS011;26405;51.850;-2.246;2023-08-21T07:13:13;6.37;;;2.43;;
40717;SDS011;26405;51.850;-2.246;2023-08-21T07:15:39;6.27;;;2.03;;
40717;SDS011;26405;51.850;-2.246;2023-08-21T07:18:04;10.67;;;2.30;;
40717;SDS011;26405;51.850;-2.246;2023-08-21T07:20:29;11.30;;;2.70;;
40717;SDS011;26405;51.850;-2.246;2023-08-21T07:22:54;7.13;;;2.40;;
40717;SDS011;26405;51.850;-2.246;2023-08-21T07:25:20;8.57;;;2.37;;
40717;SDS011;26405;51.850;-2.246;2023-08-21T07:27:46;8.20;;;2.13;;
40717;SDS011;26405;51.850;-2.246;2023-08-21T07:30:11;8.67;;;2.40;;
40717;SDS011;26405;51.850;-2.246;2023-08-21T07:32:36;10.33;;;2.00;;
40717;SDS011;26405;51.850;-2.246;2023-08-21T07:35:01;7.43;;;2.40;;
40717;SDS011;26405;51.850;-2.246;2023-08-21T07:37:27;13.20;;;2.70;;
40717;SDS011;26405;51.850;-2.246;2023-08-21T07:39:52;7.47;;;2.20;;
40717;SDS011;26405;51.850;-2.246;2023-08-21T07:42:18;8.13;;;2.33;;
40717;SDS011;26405;51.850;-2.246;2023-08-21T07:44:44;7.27;;;2.43;;
40717;SDS011;26405;51.850;-2.246;2023-08-21T07:47:09;3.43;;;1.93;;
40717;SDS011;26405;51.850;-2.246;2023-08-21T07:49:34;7.53;;;2.23;;
40717;SDS011;26405;51.850;-2.246;2023-08-21T07:51:59;8.80;;;2.07;;
40717;SDS011;26405;51.850;-2.246;2023-08-21T07:54:25;6.67;;;2.10;;
40717;SDS011;26405;51.850;-2.246;2023-08-21T07:56:50;8.47;;;2.40;;
40717;SDS011;26405;51.850;-2.246;2023-08-21T07:59:16;8.03;;;2.30;;
40717;SDS011;26405;51.850;-2.246;2023-08-21T08:01:41;10.43;;;2.33;;
40717;SDS011;26405;51.850;-2.246;2023-08-21T08:04:07;9.60;;;2.60;;
40717;SDS011;26405;51.850;-2.246;2023-08-21T08:06:32;9.00;;;2.40;;
40717;SDS011;26405;51.850;-2.246;2023-08-21T08:08:58;8.30;;;2.50;;
40717;SDS011;26405;51.850;-2.246;2023-08-21T08:11:23;8.63;;;2.60;;
40717;SDS011;26405;51.850;-2.246;2023-08-21T08:13:49;8.40;;;2.37;;
40717;SDS011;26405;51.850;-2.246;2023-08-21T08:16:14;7.67;;;2.60;;
40717;SDS011;26405;51.850;-2.246;2023-08-21T08:21:06;6.60;;;2.40;;
40717;SDS011;26405;51.850;-2.246;2023-08-21T08:23:31;8.50;;;2.80;;
40717;SDS011;26405;51.850;-2.246;2023-08-21T08:25:57;9.23;;;2.70;;
40717;SDS011;26405;51.850;-2.246;2023-08-21T08:28:22;8.03;;;2.63;;
40717;SDS011;26405;51.850;-2.246;2023-08-21T08:30:47;9.53;;;2.20;;
40717;SDS011;26405;51.850;-2.246;2023-08-21T08:33:13;7.67;;;2.30;;
40717;SDS011;26405;51.850;-2.246;2023-08-21T08:35:38;12.70;;;2.37;;
40717;SDS011;26405;51.850;-2.246;2023-08-21T08:38:05;7.63;;;2.25;;
40717;SDS011;26405;51.850;-2.246;2023-08-21T08:40:30;11.60;;;2.50;;
40717;SDS011;26405;51.850;-2.246;2023-08-21T08:42:56;5.97;;;2.20;;
40717;SDS011;26405;51.850;-2.246;2023-08-21T08:45:28;11.93;;;2.57;;
40717;SDS011;26405;51.850;-2.246;2023-08-21T08:47:58;9.15;;;2.60;;
40717;SDS011;26405;51.850;-2.246;2023-08-21T08:50:24;6.85;;;2.28;;
40717;SDS011;26405;51.850;-2.246;2023-08-21T08:52:50;8.37;;;2.63;;
40717;SDS011;26405;51.850;-2.246;2023-08-21T08:55:15;10.27;;;2.20;;
40717;SDS011;26405;51.850;-2.246;2023-08-21T08:57:41;6.30;;;2.10;;
40717;SDS011;26405;51.850;-2.246;2023-08-21T09:00:06;4.33;;;1.83;;
40717;SDS011;26405;51.850;-2.246;2023-08-21T09:02:32;8.93;;;2.20;;
40717;SDS011;26405;51.850;-2.246;2023-08-21T09:04:57;8.90;;;2.30;;
40717;SDS011;26405;51.850;-2.246;2023-08-21T09:07:23;5.23;;;2.00;;
40717;SDS011;26405;51.850;-2.246;2023-08-21T09:09:49;7.63;;;2.20;;
40717;SDS011;26405;51.850;-2.246;2023-08-21T09:12:16;7.20;;;2.00;;
40717;SDS011;26405;51.850;-2.246;2023-08-21T09:14:41;4.75;;;1.80;;
40717;SDS011;26405;51.850;-2.246;2023-08-21T09:17:07;4.47;;;1.90;;
40717;SDS011;26405;51.850;-2.246;2023-08-21T09:19:32;6.87;;;2.30;;
40717;SDS011;26405;51.850;-2.246;2023-08-21T09:21:57;6.80;;;2.20;;
40717;SDS011;26405;51.850;-2.246;2023-08-21T09:24:23;6.60;;;2.27;;
40717;SDS011;26405;51.850;-2.246;2023-08-21T09:26:49;6.43;;;2.43;;
40717;SDS011;26405;51.850;-2.246;2023-08-21T09:29:15;6.13;;;2.20;;
40717;SDS011;26405;51.850;-2.246;2023-08-21T09:31:40;8.23;;;2.33;;
40717;SDS011;26405;51.850;-2.246;2023-08-21T09:34:05;7.20;;;2.27;;
40717;SDS011;26405;51.850;-2.246;2023-08-21T09:36:31;9.47;;;2.30;;
40717;SDS011;26405;51.850;-2.246;2023-08-21T09:38:56;7.50;;;2.20;;
40717;SDS011;26405;51.850;-2.246;2023-08-21T09:41:22;7.80;;;2.30;;
40717;SDS011;26405;51.850;-2.246;2023-08-21T09:43:48;5.93;;;2.40;;
40717;SDS011;26405;51.850;-2.246;2023-08-21T09:46:16;7.80;;;2.30;;
40717;SDS011;26405;51.850;-2.246;2023-08-21T09:48:43;4.38;;;2.15;;
40717;SDS011;26405;51.850;-2.246;2023-08-21T09:53:34;5.10;;;2.22;;
40717;SDS011;26405;51.850;-2.246;2023-08-21T09:56:00;4.90;;;2.03;;
40717;SDS011;26405;51.850;-2.246;2023-08-21T09:58:28;6.07;;;2.00;;
40717;SDS011;26405;51.850;-2.246;2023-08-21T10:00:55;7.37;;;2.17;;
40717;SDS011;26405;51.850;-2.246;2023-08-21T10:03:22;4.47;;;1.80;;
40717;SDS011;26405;51.850;-2.246;2023-08-21T10:05:48;5.20;;;1.95;;
40717;SDS011;26405;51.850;-2.246;2023-08-21T10:08:13;2.83;;;1.60;;
40717;SDS011;26405;51.850;-2.246;2023-08-21T10:10:40;5.93;;;2.05;;
40717;SDS011;26405;51.850;-2.246;2023-08-21T10:13:06;5.37;;;1.90;;
40717;SDS011;26405;51.850;-2.246;2023-08-21T10:15:31;8.10;;;1.98;;
40717;SDS011;26405;51.850;-2.246;2023-08-21T10:18:21;6.18;;;2.00;;
40717;SDS011;26405;51.850;-2.246;2023-08-21T10:20:45;8.50;;;2.35;;
40717;SDS011;26405;51.850;-2.246;2023-08-21T10:23:11;2.10;;;1.50;;
40717;SDS011;26405;51.850;-2.246;2023-08-21T10:25:48;5.53;;;1.90;;
40717;SDS011;26405;51.850;-2.246;2023-08-21T10:28:13;5.20;;;2.10;;
40717;SDS011;26405;51.850;-2.246;2023-08-21T10:30:38;5.43;;;1.87;;
40717;SDS011;26405;51.850;-2.246;2023-08-21T10:33:04;7.00;;;1.97;;
40717;SDS011;26405;51.850;-2.246;2023-08-21T10:35:31;3.23;;;1.80;;
40717;SDS011;26405;51.850;-2.246;2023-08-21T10:40:31;5.05;;;2.05;;
40717;SDS011;26405;51.850;-2.246;2023-08-21T10:42:57;5.15;;;1.95;;
40717;SDS011;26405;51.850;-2.246;2023-08-21T10:45:23;4.63;;;1.90;;
40717;SDS011;26405;51.850;-2.246;2023-08-21T10:47:48;3.50;;;1.83;;
40717;SDS011;26405;51.850;-2.246;2023-08-21T10:50:15;4.57;;;2.00;;
40717;SDS011;26405;51.850;-2.246;2023-08-21T10:52:41;2.97;;;1.73;;
40717;SDS011;26405;51.850;-2.246;2023-08-21T10:55:10;8.75;;;2.28;;
40717;SDS011;26405;51.850;-2.246;2023-08-21T10:57:35;4.13;;;1.87;;
40717;SDS011;26405;51.850;-2.246;2023-08-21T11:00:01;5.07;;;1.80;;
40717;SDS011;26405;51.850;-2.246;2023-08-21T11:02:30;6.97;;;2.00;;
40717;SDS011;26405;51.850;-2.246;2023-08-21T11:04:57;5.88;;;2.20;;
40717;SDS011;26405;51.850;-2.246;2023-08-21T11:07:22;7.95;;;2.25;;
40717;SDS011;26405;51.850;-2.246;2023-08-21T11:09:48;7.20;;;2.20;;
40717;SDS011;26405;51.850;-2.246;2023-08-21T11:12:15;7.63;;;2.10;;
40717;SDS011;26405;51.850;-2.246;2023-08-21T11:14:40;6.05;;;2.13;;
40717;SDS011;26405;51.850;-2.246;2023-08-21T11:17:06;5.13;;;1.70;;
40717;SDS011;26405;51.850;-2.246;2023-08-21T11:19:32;5.35;;;1.85;;
40717;SDS011;26405;51.850;-2.246;2023-08-21T11:21:58;6.45;;;2.28;;
40717;SDS011;26405;51.850;-2.246;2023-08-21T11:24:47;5.97;;;2.00;;
40717;SDS011;26405;51.850;-2.246;2023-08-21T11:27:11;4.57;;;1.95;;
40717;SDS011;26405;51.850;-2.246;2023-08-21T11:29:39;4.75;;;1.80;;
40717;SDS011;26405;51.850;-2.246;2023-08-21T11:32:08;5.28;;;2.03;;
40717;SDS011;26405;51.850;-2.246;2023-08-21T11:34:34;4.72;;;1.95;;
40717;SDS011;26405;51.850;-2.246;2023-08-21T11:36:59;5.30;;;2.00;;
40717;SDS011;26405;51.850;-2.246;2023-08-21T11:39:24;6.57;;;2.10;;
40717;SDS011;26405;51.850;-2.246;2023-08-21T11:41:56;4.82;;;1.70;;
40717;SDS011;26405;51.850;-2.246;2023-08-21T11:44:21;6.63;;;1.90;;
40717;SDS011;26405;51.850;-2.246;2023-08-21T11:46:47;8.77;;;2.40;;
40717;SDS011;26405;51.850;-2.246;2023-08-21T11:49:12;6.87;;;2.00;;
40717;SDS011;26405;51.850;-2.246;2023-08-21T11:51:38;6.73;;;1.90;;
40717;SDS011;26405;51.850;-2.246;2023-08-21T11:54:03;5.47;;;2.10;;
40717;SDS011;26405;51.850;-2.246;2023-08-21T11:56:29;5.60;;;2.17;;
40717;SDS011;26405;51.850;-2.246;2023-08-21T11:58:54;6.33;;;1.90;;
40717;SDS011;26405;51.850;-2.246;2023-08-21T12:01:20;7.07;;;2.00;;
40717;SDS011;26405;51.850;-2.246;2023-08-21T12:03:45;6.23;;;2.10;;
40717;SDS011;26405;51.850;-2.246;2023-08-21T12:06:11;7.23;;;2.00;;
40717;SDS011;26405;51.850;-2.246;2023-08-21T12:08:37;5.70;;;1.95;;
40717;SDS011;26405;51.850;-2.246;2023-08-21T12:11:02;8.03;;;2.50;;
40717;SDS011;26405;51.850;-2.246;2023-08-21T12:13:28;8.47;;;2.80;;
40717;SDS011;26405;51.850;-2.246;2023-08-21T12:15:53;6.30;;;2.07;;
40717;SDS011;26405;51.850;-2.246;2023-08-21T12:18:18;7.23;;;2.00;;
40717;SDS011;26405;51.850;-2.246;2023-08-21T12:20:44;7.27;;;2.20;;
40717;SDS011;26405;51.850;-2.246;2023-08-21T12:23:09;4.50;;;1.97;;
40717;SDS011;26405;51.850;-2.246;2023-08-21T12:25:34;5.67;;;2.13;;
40717;SDS011;26405;51.850;-2.246;2023-08-21T12:27:59;4.17;;;2.13;;
40717;SDS011;26405;51.850;-2.246;2023-08-21T12:30:25;3.80;;;1.80;;
40717;SDS011;26405;51.850;-2.246;2023-08-21T12:32:50;4.90;;;1.80;;
40717;SDS011;26405;51.850;-2.246;2023-08-21T12:35:15;5.13;;;1.87;;
40717;SDS011;26405;51.850;-2.246;2023-08-21T12:37:40;4.60;;;1.90;;
40717;SDS011;26405;51.850;-2.246;2023-08-21T12:40:06;2.17;;;1.77;;
40717;SDS011;26405;51.850;-2.246;2023-08-21T12:42:31;8.47;;;1.80;;
40717;SDS011;26405;51.850;-2.246;2023-08-21T12:44:57;3.03;;;1.90;;
40717;SDS011;26405;51.850;-2.246;2023-08-21T12:47:22;7.90;;;2.00;;
40717;SDS011;26405;51.850;-2.246;2023-08-21T12:49:47;6.07;;;2.17;;
40717;SDS011;26405;51.850;-2.246;2023-08-21T12:52:13;2.80;;;1.80;;
40717;SDS011;26405;51.850;-2.246;2023-08-21T12:54:38;4.10;;;1.80;;
40717;SDS011;26405;51.850;-2.246;2023-08-21T12:57:04;5.57;;;2.00;;
40717;SDS011;26405;51.850;-2.246;2023-08-21T12:59:29;5.80;;;1.80;;
40717;SDS011;26405;51.850;-2.246;2023-08-21T13:01:54;6.97;;;2.13;;
40717;SDS011;26405;51.850;-2.246;2023-08-21T13:04:20;3.37;;;1.90;;
40717;SDS011;26405;51.850;-2.246;2023-08-21T13:06:45;4.60;;;1.77;;
40717;SDS011;26405;51.850;-2.246;2023-08-21T13:09:10;4.07;;;1.77;;
40717;SDS011;26405;51.850;-2.246;2023-08-21T13:11:36;5.27;;;1.77;;
40717;SDS011;26405;51.850;-2.246;2023-08-21T13:14:01;2.97;;;1.70;;
40717;SDS011;26405;51.850;-2.246;2023-08-21T13:16:26;4.23;;;2.10;;
40717;SDS011;26405;51.850;-2.246;2023-08-21T13:18:51;4.90;;;1.90;;
40717;SDS011;26405;51.850;-2.246;2023-08-21T13:21:17;4.73;;;2.00;;
40717;SDS011;26405;51.850;-2.246;2023-08-21T13:23:42;2.60;;;1.90;;
40717;SDS011;26405;51.850;-2.246;2023-08-21T13:26:07;7.53;;;1.90;;
40717;SDS011;26405;51.850;-2.246;2023-08-21T13:28:33;6.37;;;2.20;;
40717;SDS011;26405;51.850;-2.246;2023-08-21T13:30:59;5.22;;;2.10;;
40717;SDS011;26405;51.850;-2.246;2023-08-21T13:33:24;8.00;;;2.10;;
40717;SDS011;26405;51.850;-2.246;2023-08-21T13:35:49;4.53;;;2.10;;
40717;SDS011;26405;51.850;-2.246;2023-08-21T13:38:15;6.90;;;1.90;;
40717;SDS011;26405;51.850;-2.246;2023-08-21T13:40:40;5.40;;;1.97;;
40717;SDS011;26405;51.850;-2.246;2023-08-21T13:43:06;5.17;;;2.10;;
40717;SDS011;26405;51.850;-2.246;2023-08-21T13:45:32;7.38;;;2.22;;
40717;SDS011;26405;51.850;-2.246;2023-08-21T13:47:57;2.87;;;1.40;;
40717;SDS011;26405;51.850;-2.246;2023-08-21T13:50:23;18.13;;;2.87;;
40717;SDS011;26405;51.850;-2.246;2023-08-21T13:52:48;8.43;;;2.50;;
40717;SDS011;26405;51.850;-2.246;2023-08-21T13:55:14;4.90;;;2.03;;
40717;SDS011;26405;51.850;-2.246;2023-08-21T13:57:39;20.58;;;2.92;;
40717;SDS011;26405;51.850;-2.246;2023-08-21T14:00:06;10.53;;;2.10;;
40717;SDS011;26405;51.850;-2.246;2023-08-21T14:02:37;8.10;;;2.17;;
40717;SDS011;26405;51.850;-2.246;2023-08-21T14:05:03;7.93;;;2.17;;
40717;SDS011;26405;51.850;-2.246;2023-08-21T14:07:29;7.82;;;2.05;;
40717;SDS011;26405;51.850;-2.246;2023-08-21T14:09:55;4.47;;;1.90;;
40717;SDS011;26405;51.850;-2.246;2023-08-21T14:12:20;6.33;;;2.00;;
40717;SDS011;26405;51.850;-2.246;2023-08-21T14:14:45;4.43;;;1.80;;
40717;SDS011;26405;51.850;-2.246;2023-08-21T14:17:10;4.90;;;2.00;;
40717;SDS011;26405;51.850;-2.246;2023-08-21T14:19:36;4.27;;;1.90;;
40717;SDS011;26405;51.850;-2.246;2023-08-21T14:22:01;3.20;;;1.73;;
40717;SDS011;26405;51.850;-2.246;2023-08-21T14:24:26;7.77;;;2.10;;
40717;SDS011;26405;51.850;-2.246;2023-08-21T14:26:51;4.27;;;2.00;;
40717;SDS011;26405;51.850;-2.246;2023-08-21T14:29:17;3.63;;;1.73;;
40717;SDS011;26405;51.850;-2.246;2023-08-21T14:31:42;3.80;;;1.90;;
40717;SDS011;26405;51.850;-2.246;2023-08-21T14:34:07;5.07;;;1.93;;
40717;SDS011;26405;51.850;-2.246;2023-08-21T14:36:33;2.60;;;1.90;;
40717;SDS011;26405;51.850;-2.246;2023-08-21T14:38:58;5.93;;;2.10;;